Time;durP1;ratioP1;P1;durP2;ratioP2;P2;SDS_P1;SDS_P2;PMS_P1;PMS_P2;Temp;Humidity;BMP_temperature;BMP_pressure;BME280_temperature;BME280_humidity;BME280_pressure;Samples;Min_cycle;Max_cycle;Signal;HPM_P1;HPM_P2
2021/03/19 00:01:41;;;;;;;19.85;11.38;;;;;;;5.15;100.00;101391.84;5015781;28;20043;-80
2021/03/19 00:04:07;;;;;;;22.67;12.55;;;;;;;5.18;100.00;101397.09;4993721;28;20033;-80
2021/03/19 00:06:33;;;;;;;25.27;12.43;;;;;;;5.17;100.00;101390.00;5016594;28;20026;-79
2021/03/19 00:09:01;;;;;;;23.13;12.35;;;;;;;5.21;100.00;101412.94;4993663;28;20033;-80
2021/03/19 00:11:28;;;;;;;25.08;12.90;;;;;;;5.14;100.00;101400.75;5011317;28;20088;-79
2021/03/19 00:13:54;;;;;;;30.70;13.13;;;;;;;5.05;100.00;101404.56;5036326;28;20033;-80
2021/03/19 00:16:19;;;;;;;23.10;12.82;;;;;;;5.06;100.00;101402.78;4994133;28;20103;-80
2021/03/19 00:18:45;;;;;;;26.90;13.75;;;;;;;5.09;100.00;101410.66;5016640;28;20068;-79
2021/03/19 00:21:11;;;;;;;25.02;12.55;;;;;;;5.02;100.00;101409.09;5013296;28;20041;-80
2021/03/19 00:23:36;;;;;;;25.85;12.27;;;;;;;4.98;100.00;101410.13;5008073;28;20518;-80
2021/03/19 00:26:02;;;;;;;25.00;12.95;;;;;;;4.98;100.00;101411.00;5014734;28;20056;-80
2021/03/19 00:28:27;;;;;;;24.05;14.30;;;;;;;4.97;100.00;101421.69;5014175;28;20142;-80
2021/03/19 00:30:53;;;;;;;26.20;13.60;;;;;;;5.04;100.00;101423.25;5025614;28;20048;-80
2021/03/19 00:33:18;;;;;;;26.02;14.90;;;;;;;5.11;100.00;101420.34;5015316;28;20037;-81
2021/03/19 00:35:44;;;;;;;32.97;15.65;;;;;;;5.10;100.00;101428.38;5012531;28;20037;-81
2021/03/19 00:38:10;;;;;;;32.85;15.27;;;;;;;5.11;100.00;101438.97;5015127;28;20397;-80
2021/03/19 00:40:38;;;;;;;29.23;15.55;;;;;;;5.07;100.00;101442.63;5009504;28;20482;-80
2021/03/19 00:43:05;;;;;;;36.55;16.27;;;;;;;5.02;100.00;101430.38;5018382;28;20037;-81
2021/03/19 00:45:31;;;;;;;33.75;17.30;;;;;;;4.94;100.00;101443.06;5026887;28;20041;-83
2021/03/19 00:47:56;;;;;;;32.10;17.75;;;;;;;4.99;100.00;101444.66;5005669;28;20414;-80
2021/03/19 00:50:31;;;;;;;35.80;17.83;;;;;;;5.00;100.00;101450.88;5027973;28;20465;-78
2021/03/19 00:52:56;;;;;;;27.15;17.08;;;;;;;4.89;100.00;101452.03;5010552;28;20095;-81
2021/03/19 00:55:23;;;;;;;37.08;19.83;;;;;;;5.02;100.00;101457.00;5024044;28;20525;-80
2021/03/19 00:57:49;;;;;;;34.17;20.77;;;;;;;4.98;100.00;101452.69;5013286;28;20069;-80
2021/03/19 01:00:17;;;;;;;35.40;19.58;;;;;;;4.96;100.00;101459.84;5013199;28;20061;-79
2021/03/19 01:02:42;;;;;;;36.85;20.02;;;;;;;4.89;100.00;101465.34;5014835;28;20577;-78
2021/03/19 01:05:10;;;;;;;34.50;20.25;;;;;;;4.93;100.00;101459.94;4996361;28;20030;-79
2021/03/19 01:07:36;;;;;;;39.75;21.10;;;;;;;4.93;100.00;101467.91;5015372;28;20053;-79
2021/03/19 01:10:06;;;;;;;41.58;20.00;;;;;;;4.86;100.00;101460.13;4997035;28;20030;-80
2021/03/19 01:12:32;;;;;;;38.70;21.20;;;;;;;4.94;100.00;101461.69;5032855;28;20032;-80
2021/03/19 01:14:57;;;;;;;36.33;21.20;;;;;;;4.84;100.00;101463.72;5001381;28;20052;-79
2021/03/19 01:17:23;;;;;;;35.33;20.25;;;;;;;4.81;100.00;101462.00;4996731;28;20110;-80
2021/03/19 01:19:48;;;;;;;36.65;21.42;;;;;;;4.79;100.00;101460.34;5012223;28;20029;-79
2021/03/19 01:22:13;;;;;;;38.58;20.85;;;;;;;4.78;100.00;101454.13;5016121;28;20025;-79
2021/03/19 01:24:39;;;;;;;37.45;19.73;;;;;;;4.76;100.00;101457.75;5014995;28;20045;-80
2021/03/19 01:27:04;;;;;;;35.55;19.95;;;;;;;4.70;99.59;101457.91;5039685;28;20030;-81
2021/03/19 01:29:30;;;;;;;34.90;20.50;;;;;;;4.74;99.08;101470.25;5042904;28;20037;-80
2021/03/19 01:31:55;;;;;;;36.15;20.23;;;;;;;4.72;100.00;101472.06;5007543;28;20033;-81
2021/03/19 01:34:21;;;;;;;35.85;21.27;;;;;;;4.67;100.00;101469.53;5012847;28;20387;-80
2021/03/19 01:36:46;;;;;;;37.88;21.20;;;;;;;4.59;100.00;101474.19;5040255;28;20076;-79
2021/03/19 01:39:12;;;;;;;35.70;20.67;;;;;;;4.60;98.78;101472.41;5029123;28;20455;-80
2021/03/19 01:41:40;;;;;;;35.55;20.85;;;;;;;4.63;97.92;101481.16;5014543;28;20037;-80
2021/03/19 01:44:41;;;;;;;34.83;19.08;;;;;;;4.60;97.83;101472.41;5024706;28;20052;-80
2021/03/19 01:47:44;;;;;;;32.92;19.80;;;;;;;4.50;98.00;101479.78;5004034;28;20043;-80
2021/03/19 01:50:47;;;;;;;36.78;20.85;;;;;;;4.43;98.24;101480.84;5019314;28;20081;-80
2021/03/19 01:53:50;;;;;;;35.08;19.15;;;;;;;4.52;99.18;101485.91;5025538;28;20061;-80
2021/03/19 01:56:53;;;;;;;31.63;18.85;;;;;;;4.53;97.92;101492.97;5013701;28;20059;-81
2021/03/19 01:59:57;;;;;;;30.98;17.63;;;;;;;4.51;98.84;101493.91;5024095;28;20485;-80
2021/03/19 02:03:00;;;;;;;32.38;16.88;;;;;;;4.43;98.49;101496.78;5024232;28;20029;-79
2021/03/19 02:06:04;;;;;;;35.25;18.13;;;;;;;4.37;98.06;101492.50;5044523;28;20097;-80
2021/03/19 02:09:07;;;;;;;33.58;17.98;;;;;;;4.38;98.07;101493.38;5015735;28;20044;-80
2021/03/19 02:12:18;;;;;;;37.13;19.95;;;;;;;4.30;98.30;101490.06;5037243;28;20108;-79
2021/03/19 02:15:21;;;;;;;35.70;19.98;;;;;;;4.26;97.94;101494.56;4995250;28;20045;-79
2021/03/19 02:18:24;;;;;;;40.05;22.15;;;;;;;4.18;99.60;101487.72;5040204;28;20049;-80
2021/03/19 02:21:27;;;;;;;40.65;23.30;;;;;;;4.12;99.95;101503.81;5034471;28;20041;-80
2021/03/19 02:24:30;;;;;;;48.47;23.75;;;;;;;3.99;100.00;101505.91;5004977;28;20376;-80
2021/03/19 02:27:33;;;;;;;51.28;25.25;;;;;;;3.95;100.00;101505.09;5005910;28;20048;-80
2021/03/19 02:30:37;;;;;;;55.97;27.75;;;;;;;4.01;100.00;101504.09;5019320;28;20474;-79
2021/03/19 02:33:02;;;;;;;49.53;27.15;;;;;;;4.07;100.00;101506.59;5037347;28;20124;-79
2021/03/19 02:35:28;;;;;;;48.60;26.58;;;;;;;4.00;100.00;101503.22;5012217;28;20040;-79
2021/03/19 02:37:53;;;;;;;46.10;26.27;;;;;;;3.95;100.00;101514.88;5011916;28;20052;-79
2021/03/19 02:40:22;;;;;;;45.22;24.67;;;;;;;4.04;100.00;101515.50;4991687;28;20393;-80
2021/03/19 02:42:48;;;;;;;45.95;23.65;;;;;;;3.94;100.00;101508.69;4993577;28;20048;-80
2021/03/19 02:45:20;;;;;;;44.65;24.02;;;;;;;3.92;100.00;101505.19;5034477;28;20029;-80
2021/03/19 02:47:46;;;;;;;42.08;23.33;;;;;;;3.99;100.00;101521.84;5036919;28;20037;-80
2021/03/19 02:50:12;;;;;;;44.47;23.75;;;;;;;3.94;100.00;101513.13;5023312;28;20041;-80
2021/03/19 02:52:40;;;;;;;37.67;21.63;;;;;;;3.91;100.00;101514.06;5023116;28;20160;-80
2021/03/19 02:55:08;;;;;;;42.15;21.40;;;;;;;3.90;100.00;101520.28;5005976;28;20042;-80
2021/03/19 02:57:34;;;;;;;39.15;21.08;;;;;;;4.00;100.00;101519.16;5007632;28;20029;-80
2021/03/19 03:00:00;;;;;;;30.08;17.15;;;;;;;4.06;100.00;101519.00;5040098;28;20033;-80
2021/03/19 03:02:26;;;;;;;28.90;15.68;;;;;;;3.99;100.00;101517.41;5004811;28;20080;-80
2021/03/19 03:04:52;;;;;;;29.00;15.40;;;;;;;4.00;100.00;101516.50;5041261;28;20052;-81
2021/03/19 03:07:24;;;;;;;27.70;14.93;;;;;;;3.91;100.00;101529.97;5023375;28;20041;-80
2021/03/19 03:09:50;;;;;;;32.55;14.25;;;;;;;3.95;100.00;101530.81;5024609;28;20045;-80
2021/03/19 03:12:18;;;;;;;26.05;13.52;;;;;;;3.89;100.00;101537.09;5025185;28;20035;-81
2021/03/19 03:14:43;;;;;;;22.88;13.82;;;;;;;3.80;100.00;101537.34;5010840;28;20037;-81
2021/03/19 03:17:10;;;;;;;28.73;14.90;;;;;;;3.82;100.00;101534.66;5009358;28;20025;-81
2021/03/19 03:19:36;;;;;;;24.40;14.52;;;;;;;3.74;100.00;101541.91;5042879;28;20040;-81
2021/03/19 03:22:03;;;;;;;22.52;13.98;;;;;;;3.74;100.00;101540.13;5031529;28;20037;-80
2021/03/19 03:24:29;;;;;;;26.10;14.27;;;;;;;3.73;100.00;101542.81;5011858;28;20026;-80
2021/03/19 03:26:55;;;;;;;28.13;15.57;;;;;;;3.59;100.00;101549.31;5018133;28;20026;-79
2021/03/19 03:29:22;;;;;;;26.90;13.93;;;;;;;3.65;100.00;101553.59;5023134;28;20040;-80
2021/03/19 03:31:48;;;;;;;28.42;13.55;;;;;;;3.73;100.00;101556.97;5014520;28;20053;-79
2021/03/19 03:34:14;;;;;;;25.92;13.65;;;;;;;3.64;100.00;101567.81;5020907;28;20443;-79
2021/03/19 03:36:41;;;;;;;27.58;14.68;;;;;;;3.57;100.00;101566.19;5037771;28;20040;-80
2021/03/19 03:39:11;;;;;;;24.00;13.57;;;;;;;3.61;100.00;101575.84;5018506;28;20086;-79
2021/03/19 03:41:37;;;;;;;28.52;14.48;;;;;;;3.53;100.00;101565.38;4999058;28;20029;-80
2021/03/19 03:44:04;;;;;;;29.33;13.80;;;;;;;3.61;100.00;101573.19;5016569;28;20105;-79
2021/03/19 03:46:30;;;;;;;22.77;12.27;;;;;;;3.59;100.00;101580.28;5018516;28;20033;-80
2021/03/19 03:48:58;;;;;;;21.08;12.85;;;;;;;3.61;100.00;101589.09;5036697;28;20124;-80
2021/03/19 03:51:27;;;;;;;24.83;12.70;;;;;;;3.55;100.00;101586.59;4999202;28;20037;-80
2021/03/19 03:53:53;;;;;;;24.48;12.38;;;;;;;3.52;100.00;101594.59;5032766;28;20026;-79
2021/03/19 03:56:20;;;;;;;26.67;12.10;;;;;;;3.55;100.00;101594.56;5019670;28;20482;-80
2021/03/19 03:58:46;;;;;;;18.02;11.38;;;;;;;3.47;100.00;101596.47;5017324;28;20060;-79
2021/03/19 04:01:11;;;;;;;21.80;11.52;;;;;;;3.46;100.00;101589.41;5019606;28;20383;-80
2021/03/19 04:03:37;;;;;;;21.73;11.50;;;;;;;3.50;100.00;101592.00;5020833;28;20033;-80
2021/03/19 04:06:04;;;;;;;18.95;11.65;;;;;;;3.50;100.00;101580.50;5002720;28;20028;-79
2021/03/19 04:08:31;;;;;;;18.90;10.50;;;;;;;3.42;100.00;101593.06;5016242;28;20038;-79
2021/03/19 04:10:59;;;;;;;23.05;11.00;;;;;;;3.46;100.00;101597.38;5001680;28;20101;-78
2021/03/19 04:13:26;;;;;;;24.13;11.63;;;;;;;3.47;100.00;101607.09;5016502;28;20031;-80
2021/03/19 04:15:52;;;;;;;23.38;12.30;;;;;;;3.37;100.00;101611.75;5005910;28;20029;-80
2021/03/19 04:18:18;;;;;;;20.92;11.48;;;;;;;3.44;100.00;101621.31;5002885;28;20071;-80
2021/03/19 04:20:47;;;;;;;23.42;12.65;;;;;;;3.34;100.00;101618.88;5010902;28;20033;-79
2021/03/19 04:23:13;;;;;;;26.00;13.02;;;;;;;3.27;100.00;101619.94;5033856;28;20041;-79
2021/03/19 04:25:39;;;;;;;25.40;13.13;;;;;;;3.32;100.00;101626.88;5037087;28;20033;-78
2021/03/19 04:28:10;;;;;;;24.95;12.90;;;;;;;3.38;100.00;101631.19;5005384;28;20034;-79
2021/03/19 04:30:40;;;;;;;27.05;13.60;;;;;;;3.21;100.00;101616.47;5020721;28;20521;-80
2021/03/19 04:33:14;;;;;;;28.77;13.60;;;;;;;3.34;100.00;101627.69;5038266;28;20228;-80
2021/03/19 04:35:39;;;;;;;23.55;13.85;;;;;;;3.29;100.00;101623.41;5001721;28;20038;-79
2021/03/19 04:38:09;;;;;;;23.63;12.40;;;;;;;3.40;100.00;101622.28;5023584;28;20724;-79
2021/03/19 04:40:36;;;;;;;23.55;13.85;;;;;;;3.23;100.00;101624.41;5034429;28;20029;-80
2021/03/19 04:43:03;;;;;;;26.92;13.30;;;;;;;3.21;100.00;101621.75;5033293;28;20033;-80
2021/03/19 04:45:29;;;;;;;33.30;13.63;;;;;;;3.17;100.00;101636.00;4998476;28;20179;-80
2021/03/19 04:47:55;;;;;;;27.48;12.98;;;;;;;3.22;100.00;101636.78;5035089;28;20755;-80
2021/03/19 04:50:23;;;;;;;27.80;13.20;;;;;;;3.10;100.00;101626.41;5021758;28;20116;-79
2021/03/19 04:52:49;;;;;;;29.73;13.73;;;;;;;3.01;100.00;101629.25;5038223;28;20436;-79
2021/03/19 04:55:15;;;;;;;26.70;13.70;;;;;;;2.99;100.00;101639.00;5027054;28;20026;-80
2021/03/19 04:57:40;;;;;;;25.85;13.23;;;;;;;2.91;100.00;101648.88;5003335;28;20052;-79
2021/03/19 05:06:42;;;;;;;26.80;13.82;;;;;;;2.89;100.00;101652.47;4996780;28;20054;-79
2021/03/19 05:09:17;;;;;;;31.52;14.93;;;;;;;2.83;100.00;101654.34;5006741;28;20030;-80
2021/03/19 05:11:43;;;;;;;27.95;12.95;;;;;;;2.81;100.00;101655.25;5002042;28;20528;-79
2021/03/19 05:14:08;;;;;;;31.67;15.27;;;;;;;2.83;100.00;101656.09;4955726;28;20462;-80
2021/03/19 05:16:33;;;;;;;32.67;14.40;;;;;;;2.74;100.00;101654.47;4987654;28;20504;-79
2021/03/19 05:19:08;;;;;;;28.88;14.85;;;;;;;2.70;100.00;101659.88;4971582;28;20034;-79
2021/03/19 05:21:34;;;;;;;31.20;14.10;;;;;;;2.62;100.00;101667.06;4972068;28;20030;-78
2021/03/19 05:23:59;;;;;;;25.30;14.13;;;;;;;2.56;100.00;101676.00;4972488;28;20066;-79
2021/03/19 05:26:24;;;;;;;27.23;13.95;;;;;;;2.59;100.00;101672.44;4985277;28;20637;-78
2021/03/19 05:28:50;;;;;;;28.38;14.40;;;;;;;2.57;100.00;101674.22;4973227;28;20125;-79
2021/03/19 05:31:16;;;;;;;29.00;15.18;;;;;;;2.43;100.00;101687.69;4970642;28;20038;-79
2021/03/19 05:33:43;;;;;;;24.67;14.98;;;;;;;2.43;100.00;101688.56;4985704;28;20035;-79
2021/03/19 05:36:10;;;;;;;26.65;14.00;;;;;;;2.41;100.00;101687.69;4979203;28;20052;-79
2021/03/19 05:38:35;;;;;;;30.40;14.45;;;;;;;2.40;100.00;101691.28;4980236;28;20050;-79
2021/03/19 05:41:01;;;;;;;29.60;14.63;;;;;;;2.40;100.00;101688.63;4963270;28;20057;-78
2021/03/19 05:43:32;;;;;;;22.38;13.65;;;;;;;2.26;100.00;101687.94;4987169;28;20030;-79
2021/03/19 05:46:15;;;;;;;29.52;14.38;;;;;;;2.24;100.00;101697.69;4973111;28;20022;-78
2021/03/19 05:49:12;;;;;;;30.77;14.07;;;;;;;2.26;100.00;101695.00;4954208;28;20519;-79
2021/03/19 05:51:44;;;;;;;30.33;15.40;;;;;;;2.17;100.00;101706.59;4969768;28;20089;-79
2021/03/19 05:54:36;;;;;;;25.15;13.68;;;;;;;2.25;100.00;101702.09;4965798;28;20037;-79
2021/03/19 05:57:04;;;;;;;25.13;15.25;;;;;;;2.13;100.00;101712.84;4978407;28;20487;-79
2021/03/19 05:59:48;;;;;;;28.80;15.65;;;;;;;2.18;100.00;101718.97;4988995;28;20038;-80
2021/03/19 06:02:40;;;;;;;30.20;15.35;;;;;;;2.17;100.00;101727.78;4985665;28;20113;-80
2021/03/19 06:05:09;;;;;;;39.05;17.40;;;;;;;2.13;100.00;101726.09;4993741;28;20065;-80
2021/03/19 06:08:54;;;;;;;30.17;14.07;;;;;;;2.09;100.00;101727.03;4976398;28;20122;-80
2021/03/19 06:11:23;;;;;;;30.83;15.13;;;;;;;2.08;100.00;101730.59;4877506;29;20028;-79
2021/03/19 06:14:00;;;;;;;32.72;15.15;;;;;;;2.15;100.00;101734.03;4909998;29;20048;-79
2021/03/19 06:16:43;;;;;;;25.10;13.38;;;;;;;2.23;100.00;101743.59;4950727;28;20100;-80
2021/03/19 06:19:53;;;;;;;26.15;13.52;;;;;;;2.13;100.00;101749.06;5004281;28;20099;-79
2021/03/19 06:22:46;;;;;;;31.20;15.82;;;;;;;2.20;100.00;101751.59;4970884;28;20455;-79
2021/03/19 06:25:41;;;;;;;24.80;13.20;;;;;;;2.06;100.00;101756.19;4969443;28;20491;-79
2021/03/19 06:28:43;;;;;;;26.75;14.23;;;;;;;2.12;100.00;101766.72;4973941;28;20073;-80
2021/03/19 06:31:27;;;;;;;30.63;14.02;;;;;;;2.03;100.00;101766.84;4963398;28;20499;-79
2021/03/19 06:34:08;;;;;;;33.13;13.50;;;;;;;2.01;100.00;101765.97;4990449;28;20068;-79
2021/03/19 06:37:13;;;;;;;27.58;13.70;;;;;;;2.14;100.00;101774.66;4977230;28;20039;-78
2021/03/19 06:39:51;;;;;;;24.83;13.63;;;;;;;2.05;100.00;101772.97;4975894;28;20039;-80
2021/03/19 06:42:20;;;;;;;25.45;13.05;;;;;;;2.18;100.00;101776.34;4968009;28;20286;-80
2021/03/19 06:45:11;;;;;;;21.20;12.88;;;;;;;2.29;100.00;101780.59;4971571;28;20038;-78
2021/03/19 06:47:41;;;;;;;22.88;12.65;;;;;;;2.55;100.00;101782.03;4964708;28;20038;-80
2021/03/19 06:50:13;;;;;;;20.52;12.32;;;;;;;2.85;100.00;101778.91;4970020;28;20050;-80
2021/03/19 06:52:39;;;;;;;24.13;11.35;;;;;;;3.24;97.65;101780.03;4990897;28;20042;-80
2021/03/19 06:55:06;;;;;;;17.80;10.45;;;;;;;3.67;96.35;101785.44;4973884;28;20633;-80
2021/03/19 06:57:46;;;;;;;18.58;10.27;;;;;;;4.25;93.26;101785.16;4971927;28;20491;-80
2021/03/19 07:00:31;;;;;;;20.58;9.98;;;;;;;4.78;88.31;101796.38;4983182;28;20037;-79
2021/03/19 07:03:26;;;;;;;17.73;10.13;;;;;;;5.05;83.19;101803.72;4976273;28;20682;-80
2021/03/19 07:05:56;;;;;;;18.20;9.63;;;;;;;5.32;82.33;101795.94;4989814;28;20034;-80
2021/03/19 07:08:40;;;;;;;20.45;9.63;;;;;;;5.76;79.95;101811.63;4976447;28;20391;-79
2021/03/19 07:11:14;;;;;;;17.15;9.18;;;;;;;6.31;78.00;101821.63;4995965;28;20034;-80
2021/03/19 07:13:52;;;;;;;15.07;8.23;;;;;;;6.50;75.82;101820.19;4981101;28;20439;-80
2021/03/19 07:16:23;;;;;;;13.95;8.15;;;;;;;6.79;72.72;101819.28;4970325;28;20101;-80
2021/03/19 07:19:10;;;;;;;20.60;8.57;;;;;;;6.97;72.60;101828.53;5010570;28;20033;-79
2021/03/19 07:22:07;;;;;;;15.38;7.40;;;;;;;7.47;70.57;101823.34;4978122;28;20061;-80
2021/03/19 07:25:01;;;;;;;15.07;7.97;;;;;;;7.73;69.07;101831.31;5002712;28;20141;-80
2021/03/19 07:27:32;;;;;;;12.35;7.32;;;;;;;8.16;68.56;101832.44;4983710;28;20038;-80
2021/03/19 07:30:14;;;;;;;16.35;7.57;;;;;;;8.46;67.94;101844.72;4972286;28;20046;-80
2021/03/19 07:32:52;;;;;;;13.87;7.50;;;;;;;8.66;65.23;101855.53;4972640;28;20403;-80
2021/03/19 07:35:55;;;;;;;11.70;7.18;;;;;;;8.17;63.60;101844.88;4988630;28;20038;-80
2021/03/19 07:38:42;;;;;;;15.20;7.00;;;;;;;8.79;64.04;101851.47;4952018;28;20185;-80
2021/03/19 07:41:37;;;;;;;14.45;8.30;;;;;;;8.95;62.15;101865.09;4966738;28;20053;-79
2021/03/19 07:44:26;;;;;;;13.13;7.13;;;;;;;8.78;64.27;101867.56;4951667;28;20121;-79
2021/03/19 07:47:10;;;;;;;13.52;7.57;;;;;;;8.90;62.00;101862.63;4987292;28;20031;-80
2021/03/19 07:50:13;;;;;;;16.48;7.43;;;;;;;9.15;60.84;101877.72;4972603;28;20042;-80
2021/03/19 07:53:05;;;;;;;14.98;8.13;;;;;;;9.45;60.05;101887.19;4940856;28;20042;-80
2021/03/19 07:55:45;;;;;;;15.73;8.43;;;;;;;9.48;57.12;101889.75;4954465;28;20050;-80
2021/03/19 07:58:48;;;;;;;24.45;10.20;;;;;;;9.34;59.03;101881.41;4976311;28;20049;-79
2021/03/19 08:01:55;;;;;;;19.00;8.93;;;;;;;9.69;57.55;101887.97;4982102;28;20037;-79
2021/03/19 08:04:44;;;;;;;15.68;8.70;;;;;;;9.57;58.83;101888.50;4993896;28;20026;-79
2021/03/19 08:07:35;;;;;;;13.48;7.28;;;;;;;9.85;56.89;101902.50;4978529;28;20026;-79
2021/03/19 08:10:06;;;;;;;18.30;8.15;;;;;;;10.04;57.68;101897.22;4988118;28;20045;-81
2021/03/19 08:12:35;;;;;;;14.30;8.27;;;;;;;10.01;57.34;101906.25;4986026;28;20068;-79
2021/03/19 08:15:17;;;;;;;15.10;7.68;;;;;;;10.38;57.72;101897.50;5000471;28;20054;-80
2021/03/19 08:18:09;;;;;;;16.25;8.20;;;;;;;10.41;54.67;101902.75;4981359;28;20035;-79
2021/03/19 08:21:12;;;;;;;18.92;8.25;;;;;;;10.32;55.65;101907.63;5008232;28;20018;-80
2021/03/19 08:23:57;;;;;;;14.77;7.32;;;;;;;10.57;54.67;101908.28;4987007;28;20066;-79
2021/03/19 08:26:35;;;;;;;17.10;7.50;;;;;;;11.08;54.08;101921.13;4984663;28;20038;-81
2021/03/19 08:29:49;;;;;;;14.85;7.38;;;;;;;11.01;53.26;101914.28;4998886;28;20065;-81
2021/03/19 08:32:42;;;;;;;13.27;7.15;;;;;;;11.11;51.65;101920.97;4955376;28;20173;-80
2021/03/19 08:35:29;;;;;;;16.35;7.75;;;;;;;11.10;52.30;101924.63;4988373;28;20058;-81
2021/03/19 08:38:10;;;;;;;18.50;7.93;;;;;;;10.98;52.79;101922.50;5004306;28;20038;-81
2021/03/19 08:40:42;;;;;;;15.60;8.48;;;;;;;10.72;53.51;101928.22;5003436;28;20424;-80
2021/03/19 08:43:18;;;;;;;15.38;7.38;;;;;;;10.84;53.25;101925.84;4970674;28;20142;-81
2021/03/19 08:45:44;;;;;;;15.95;8.05;;;;;;;11.06;52.61;101938.25;5004602;28;20061;-81
2021/03/19 08:48:14;;;;;;;16.42;7.30;;;;;;;10.40;52.31;101932.34;4998135;28;20038;-80
2021/03/19 08:50:42;;;;;;;17.00;7.82;;;;;;;10.53;54.17;101931.72;5008627;28;20041;-79
2021/03/19 08:53:16;;;;;;;16.05;7.45;;;;;;;10.41;53.07;101937.63;4989091;28;20094;-81
2021/03/19 08:55:44;;;;;;;14.05;6.90;;;;;;;10.74;51.89;101947.81;4998429;28;20097;-81
2021/03/19 08:58:28;;;;;;;15.00;7.13;;;;;;;10.91;51.90;101945.22;5002528;28;20118;-80
2021/03/19 09:00:55;;;;;;;14.32;7.13;;;;;;;11.10;54.27;101954.19;5005519;28;20034;-81
2021/03/19 09:03:49;;;;;;;15.88;6.90;;;;;;;11.15;51.50;101964.69;4985722;28;20049;-80
2021/03/19 09:06:18;;;;;;;12.63;7.15;;;;;;;10.60;52.06;101955.63;5000211;28;20046;-81
2021/03/19 09:08:44;;;;;;;20.58;6.95;;;;;;;10.75;51.63;101954.91;4986907;28;20117;-82
2021/03/19 09:11:14;;;;;;;15.00;7.18;;;;;;;10.96;51.99;101959.31;4998372;28;20124;-81
2021/03/19 09:14:04;;;;;;;11.27;6.63;;;;;;;10.97;50.91;101958.38;5000042;28;20066;-80
2021/03/19 09:16:40;;;;;;;16.58;7.07;;;;;;;10.70;52.11;101965.00;5000566;28;20034;-79
2021/03/19 09:19:35;;;;;;;17.20;6.85;;;;;;;11.01;49.85;101968.03;4992256;28;20584;-79
2021/03/19 09:22:19;;;;;;;17.55;7.00;;;;;;;10.90;49.66;101970.34;4984059;28;20022;-79
2021/03/19 09:25:18;;;;;;;14.93;6.65;;;;;;;10.73;50.07;101967.56;4985464;28;20780;-79
2021/03/19 09:27:46;;;;;;;17.00;7.38;;;;;;;10.77;53.61;101969.16;4987680;28;20049;-80
2021/03/19 09:30:50;;;;;;;14.27;6.97;;;;;;;10.86;51.38;101977.66;4986822;28;20026;-79
2021/03/19 09:33:44;;;;;;;11.80;6.60;;;;;;;9.79;52.50;101985.00;4958974;28;20043;-79
2021/03/19 09:36:47;;;;;;;16.58;7.78;;;;;;;9.45;55.07;101983.69;4997277;28;20598;-80
2021/03/19 09:39:51;;;;;;;14.00;6.80;;;;;;;8.82;55.15;101982.56;4981618;28;20045;-80
2021/03/19 09:42:20;;;;;;;15.18;6.45;;;;;;;8.72;55.86;101981.13;4997305;28;20046;-79
2021/03/19 09:44:51;;;;;;;14.93;6.63;;;;;;;8.71;56.81;101994.56;4983954;28;20030;-80
2021/03/19 09:47:24;;;;;;;8.90;5.47;;;;;;;8.43;55.61;101992.00;5014440;28;21500;-81
2021/03/19 09:50:06;;;;;;;14.98;6.43;;;;;;;8.59;56.78;101995.00;4998843;28;20382;-79
2021/03/19 09:52:32;;;;;;;9.07;4.77;;;;;;;8.44;53.95;101991.97;4999963;28;20042;-80
2021/03/19 09:54:57;;;;;;;13.10;5.72;;;;;;;8.29;56.88;101996.91;4983254;28;20292;-80
2021/03/19 09:57:29;;;;;;;7.28;4.40;;;;;;;8.27;54.36;102004.16;4972290;28;20045;-80
2021/03/19 10:00:07;;;;;;;12.73;4.57;;;;;;;7.95;54.22;102006.09;4987244;28;20050;-79
2021/03/19 10:02:42;;;;;;;9.60;4.13;;;;;;;8.19;55.63;102011.53;5004737;28;20050;-80
2021/03/19 10:05:15;;;;;;;10.13;4.22;;;;;;;8.41;55.60;102018.81;4985212;28;20090;-79
2021/03/19 10:07:43;;;;;;;13.15;4.80;;;;;;;8.63;56.96;102012.72;4994271;28;20056;-79
2021/03/19 10:10:30;;;;;;;12.77;4.95;;;;;;;8.48;54.14;102016.78;4976481;28;20030;-80
2021/03/19 10:13:13;;;;;;;6.60;3.92;;;;;;;8.23;53.04;102023.88;4970617;28;20039;-78
2021/03/19 10:15:40;;;;;;;11.93;4.07;;;;;;;8.21;55.13;102015.91;4980529;28;20038;-79
2021/03/19 10:18:07;;;;;;;11.82;4.70;;;;;;;8.02;54.96;102015.63;4974804;28;20066;-79
2021/03/19 10:20:37;;;;;;;6.63;4.10;;;;;;;7.77;54.83;102020.06;4977215;28;20052;-79
2021/03/19 10:23:13;;;;;;;11.90;4.28;;;;;;;7.96;57.25;102021.19;4971029;28;20137;-80
2021/03/19 10:25:41;;;;;;;10.13;4.20;;;;;;;8.03;54.82;102008.50;4991430;28;20065;-79
2021/03/19 10:28:21;;;;;;;7.28;3.97;;;;;;;7.93;53.02;102021.31;4971008;28;20027;-79
2021/03/19 10:30:58;;;;;;;9.45;4.10;;;;;;;8.01;54.57;102018.38;5008949;28;20042;-78
2021/03/19 10:33:50;;;;;;;7.47;3.67;;;;;;;7.87;53.97;102026.84;4973271;28;20034;-78
2021/03/19 10:36:22;;;;;;;7.50;3.53;;;;;;;8.19;55.85;102011.53;4975720;28;20042;-78
2021/03/19 10:38:58;;;;;;;7.22;3.40;;;;;;;8.43;55.07;102008.06;4969361;28;20041;-78
2021/03/19 10:41:30;;;;;;;4.72;2.67;;;;;;;8.61;54.96;102014.56;4970183;28;20605;-78
2021/03/19 10:44:20;;;;;;;12.40;4.22;;;;;;;8.82;54.04;102017.34;4973408;28;20054;-79
2021/03/19 10:47:20;;;;;;;9.88;4.22;;;;;;;9.18;56.58;102022.28;4991463;28;20038;-79
2021/03/19 10:49:52;;;;;;;9.25;3.40;;;;;;;9.30;50.99;102013.75;5003565;28;20103;-78
2021/03/19 10:52:23;;;;;;;16.13;4.15;;;;;;;8.80;50.38;102021.00;4963912;28;20498;-79
2021/03/19 10:54:50;;;;;;;5.75;3.47;;;;;;;9.00;53.58;102017.59;4974541;28;20439;-78
2021/03/19 10:57:25;;;;;;;9.07;4.28;;;;;;;9.07;52.72;102024.47;4972852;28;20551;-80
2021/03/19 10:59:53;;;;;;;9.90;3.55;;;;;;;8.68;52.65;102016.97;4988918;28;20081;-78
2021/03/19 11:02:20;;;;;;;9.93;3.22;;;;;;;8.73;52.53;102025.72;4983587;28;20125;-78
2021/03/19 11:05:02;;;;;;;6.35;3.40;;;;;;;8.56;53.11;102019.22;4992035;28;20034;-79
2021/03/19 11:07:28;;;;;;;6.60;3.60;;;;;;;8.59;54.85;102022.63;4991101;28;20049;-78
2021/03/19 11:10:05;;;;;;;7.53;4.28;;;;;;;8.66;51.41;102034.88;4973690;28;20026;-79
2021/03/19 11:13:17;;;;;;;12.25;4.10;;;;;;;8.48;52.09;102031.03;4987072;28;20172;-79
2021/03/19 11:16:04;;;;;;;7.20;3.60;;;;;;;8.55;53.01;102030.84;4997294;28;20038;-79
2021/03/19 11:18:35;;;;;;;6.80;2.75;;;;;;;8.83;54.77;102021.75;4989664;28;20040;-78
2021/03/19 11:21:07;;;;;;;6.57;3.28;;;;;;;9.08;55.18;102034.25;4994615;28;20031;-79
2021/03/19 11:23:48;;;;;;;9.40;3.67;;;;;;;9.22;50.05;102031.94;4993432;28;20069;-79
2021/03/19 11:26:29;;;;;;;7.90;3.28;;;;;;;9.19;52.21;102030.25;4991004;28;20384;-78
2021/03/19 11:29:34;;;;;;;8.45;2.70;;;;;;;9.12;50.24;102038.56;4975723;28;20034;-79
2021/03/19 11:32:11;;;;;;;4.45;2.70;;;;;;;8.99;48.78;102034.59;4964015;28;20053;-78
2021/03/19 11:34:40;;;;;;;8.05;3.17;;;;;;;8.92;50.87;102016.06;4996550;28;20711;-78
2021/03/19 11:37:21;;;;;;;6.65;3.20;;;;;;;8.98;49.36;102027.50;4989491;28;20080;-78
2021/03/19 11:39:50;;;;;;;9.32;3.35;;;;;;;9.04;51.61;102040.66;4975356;28;20260;-77
2021/03/19 11:42:18;;;;;;;7.53;3.20;;;;;;;9.13;50.88;102029.63;4978526;28;20081;-78
2021/03/19 11:44:47;;;;;;;5.97;3.28;;;;;;;9.23;47.08;102031.00;4963696;28;20490;-78
2021/03/19 11:47:15;;;;;;;8.10;2.50;;;;;;;9.24;48.13;102032.75;4965875;28;20035;-79
2021/03/19 11:49:40;;;;;;;9.75;3.20;;;;;;;9.40;49.96;102028.53;4995561;28;20090;-78
2021/03/19 11:52:10;;;;;;;3.35;1.60;;;;;;;9.43;44.55;102024.88;4987272;28;20030;-79
2021/03/19 11:54:35;;;;;;;3.30;1.63;;;;;;;9.60;47.88;102036.69;4971173;28;20026;-78
2021/03/19 11:57:01;;;;;;;7.50;2.03;;;;;;;9.67;47.24;102030.16;4971547;28;20088;-78
2021/03/19 11:59:27;;;;;;;4.38;1.77;;;;;;;9.85;45.60;102035.72;4978022;28;20034;-78
2021/03/19 12:01:53;;;;;;;4.07;1.80;;;;;;;9.67;45.64;102031.97;4976037;28;20450;-79
2021/03/19 12:04:21;;;;;;;2.58;1.52;;;;;;;9.77;46.19;102035.13;4974161;28;20038;-79